createdAt,value
2023-05-16T00:00:02.838Z,12.59
2023-05-16T00:01:02.847Z,12.60
2023-05-16T00:02:02.924Z,12.64
2023-05-16T00:03:02.870Z,12.67
2023-05-16T00:04:02.967Z,12.67
2023-05-16T00:05:02.812Z,12.56
2023-05-16T00:06:02.780Z,12.54
2023-05-16T00:07:02.767Z,12.59
2023-05-16T00:08:02.760Z,12.60
2023-05-16T00:09:02.757Z,12.60
2023-05-16T00:10:02.745Z,12.62
2023-05-16T00:11:02.761Z,12.62
2023-05-16T00:12:02.751Z,12.63
2023-05-16T00:13:02.705Z,12.66
2023-05-16T00:14:02.732Z,12.64
2023-05-16T00:15:02.674Z,12.60
2023-05-16T00:16:02.739Z,12.63
2023-05-16T00:17:02.848Z,12.54
2023-05-16T00:18:02.714Z,12.48
2023-05-16T00:19:02.690Z,12.52
2023-05-16T00:20:02.620Z,12.59
2023-05-16T00:21:02.618Z,12.60
2023-05-16T00:22:02.621Z,12.60
2023-05-16T00:23:02.626Z,12.59
2023-05-16T00:24:02.654Z,12.60
2023-05-16T00:25:02.580Z,12.62
2023-05-16T00:26:02.561Z,12.66
2023-05-16T00:27:02.594Z,12.64
2023-05-16T00:28:02.541Z,12.67
2023-05-16T00:29:02.520Z,12.67
2023-05-16T00:30:02.542Z,12.69
2023-05-16T00:31:02.497Z,12.66
2023-05-16T00:32:02.545Z,12.67
2023-05-16T00:33:02.509Z,12.60
2023-05-16T00:34:02.492Z,12.59
2023-05-16T00:35:02.459Z,12.57
2023-05-16T00:36:02.999Z,12.54
2023-05-16T00:37:02.437Z,12.51
2023-05-16T00:38:02.447Z,12.49
2023-05-16T00:39:02.414Z,12.46
2023-05-16T00:40:02.408Z,12.48
2023-05-16T00:41:02.426Z,12.42
2023-05-16T00:42:02.388Z,12.37
2023-05-16T00:43:02.378Z,12.27
2023-05-16T00:44:02.352Z,12.24
2023-05-16T00:45:02.380Z,12.20
2023-05-16T00:46:02.437Z,12.16
2023-05-16T00:47:02.340Z,12.16
2023-05-16T00:48:02.376Z,12.09
2023-05-16T00:49:02.302Z,12.06
2023-05-16T00:50:02.316Z,12.01
2023-05-16T00:51:02.321Z,11.89
2023-05-16T00:52:02.275Z,11.87
2023-05-16T00:53:02.259Z,11.77
2023-05-16T00:54:02.250Z,11.77
2023-05-16T00:55:02.248Z,11.78
2023-05-16T00:56:02.256Z,11.78
2023-05-16T00:57:02.217Z,11.83
2023-05-16T00:58:02.224Z,11.83
2023-05-16T00:59:02.203Z,11.61
2023-05-16T01:00:02.191Z,11.56
2023-05-16T01:01:02.237Z,11.44
2023-05-16T01:02:02.441Z,11.39
2023-05-16T01:03:02.226Z,11.44
2023-05-16T01:04:02.287Z,11.47
2023-05-16T01:05:02.145Z,11.53
2023-05-16T01:06:02.137Z,11.53
2023-05-16T01:07:02.128Z,11.49
2023-05-16T01:08:02.139Z,11.41
2023-05-16T01:09:02.087Z,11.43
2023-05-16T01:10:02.075Z,11.38
2023-05-16T01:11:02.102Z,11.36
2023-05-16T01:12:02.072Z,11.25
2023-05-16T01:13:02.062Z,11.20
2023-05-16T01:14:02.039Z,11.24
2023-05-16T01:15:02.013Z,11.14
2023-05-16T01:16:02.077Z,11.11
2023-05-16T01:17:01.993Z,11.11
2023-05-16T01:18:02.112Z,11.14
2023-05-16T01:19:02.072Z,11.09
2023-05-16T01:20:01.983Z,10.92
2023-05-16T01:21:01.948Z,10.89
2023-05-16T01:22:01.997Z,10.88
2023-05-16T01:23:01.925Z,10.88
2023-05-16T01:24:01.925Z,10.81
2023-05-16T01:25:01.910Z,10.74
2023-05-16T01:26:01.894Z,10.58
2023-05-16T01:27:01.886Z,10.55
2023-05-16T01:28:01.895Z,10.60
2023-05-16T01:29:01.859Z,10.65
2023-05-16T01:30:01.844Z,10.59
2023-05-16T01:31:01.853Z,10.47
2023-05-16T01:32:01.873Z,10.42
2023-05-16T01:33:01.912Z,10.42
2023-05-16T01:34:01.799Z,10.43
2023-05-16T01:35:01.800Z,10.42
2023-05-16T01:36:01.780Z,10.44
2023-05-16T01:37:01.786Z,10.51
2023-05-16T01:38:01.758Z,10.56
2023-05-16T01:39:01.765Z,10.58
2023-05-16T01:40:01.741Z,10.60
2023-05-16T01:41:01.724Z,10.62
2023-05-16T01:42:01.718Z,10.66
2023-05-16T01:43:01.701Z,10.70
2023-05-16T01:44:01.715Z,10.73
2023-05-16T01:45:01.703Z,10.74
2023-05-16T01:46:01.688Z,10.66
2023-05-16T01:47:01.751Z,10.65
2023-05-16T01:48:01.685Z,10.60
2023-05-16T01:49:01.632Z,10.59
2023-05-16T01:50:01.645Z,10.60
2023-05-16T01:51:01.633Z,10.63
2023-05-16T01:52:01.627Z,10.59
2023-05-16T01:53:01.596Z,10.60
2023-05-16T01:54:01.582Z,10.58
2023-05-16T01:55:01.583Z,10.51
2023-05-16T01:56:01.558Z,10.44
2023-05-16T01:57:01.564Z,10.42
2023-05-16T01:58:01.533Z,10.33
2023-05-16T01:59:01.528Z,10.26
2023-05-16T02:00:01.523Z,10.28
2023-05-16T02:01:01.538Z,10.28
2023-05-16T02:02:01.526Z,10.21
2023-05-16T02:03:01.548Z,10.21
2023-05-16T02:04:01.569Z,10.17
2023-05-16T02:05:01.473Z,10.24
2023-05-16T02:06:01.474Z,10.28
2023-05-16T02:07:01.450Z,10.33
2023-05-16T02:08:01.418Z,10.39
2023-05-16T02:09:01.414Z,10.36
2023-05-16T02:10:01.407Z,10.28
2023-05-16T02:11:01.412Z,10.28
2023-05-16T02:12:01.389Z,10.34
2023-05-16T02:13:01.370Z,10.33
2023-05-16T02:14:02.294Z,10.33
2023-05-16T02:15:01.362Z,10.34
2023-05-16T02:16:01.341Z,10.36
2023-05-16T02:17:01.536Z,10.33
2023-05-16T02:18:01.375Z,10.33
2023-05-16T02:19:01.315Z,10.22
2023-05-16T02:20:01.294Z,10.18
2023-05-16T02:21:01.320Z,10.18
2023-05-16T02:22:01.274Z,10.21
2023-05-16T02:23:01.290Z,10.19
2023-05-16T02:24:01.269Z,10.22
2023-05-16T02:25:01.286Z,10.28
2023-05-16T02:26:01.230Z,10.24
2023-05-16T02:27:01.227Z,10.21
2023-05-16T02:28:01.213Z,10.17
2023-05-16T02:29:01.217Z,10.17
2023-05-16T02:30:01.199Z,10.14
2023-05-16T02:31:01.258Z,10.10
2023-05-16T02:32:01.169Z,10.09
2023-05-16T02:33:01.238Z,10.12
2023-05-16T02:34:01.190Z,10.04
2023-05-16T02:35:01.131Z,10.10
2023-05-16T02:36:01.149Z,10.14
2023-05-16T02:37:01.108Z,10.06
2023-05-16T02:38:01.113Z,10.06
2023-05-16T02:39:01.096Z,10.09
2023-05-16T02:40:01.085Z,10.12
2023-05-16T02:41:01.098Z,10.10
2023-05-16T02:42:01.062Z,10.04
2023-05-16T02:43:01.047Z,10.01
2023-05-16T02:44:01.043Z,10.00
2023-05-16T02:45:01.031Z,9.96
2023-05-16T02:46:01.028Z,9.96
2023-05-16T02:47:01.037Z,9.96
2023-05-16T02:48:01.033Z,9.96
2023-05-16T02:49:07.954Z,9.96
2023-05-16T02:50:00.974Z,9.99
2023-05-16T02:51:00.968Z,9.97
2023-05-16T02:52:01.727Z,9.99
2023-05-16T02:53:00.942Z,10.04
2023-05-16T02:54:00.937Z,10.00
2023-05-16T02:55:20.336Z,10.01
2023-05-16T02:56:00.917Z,9.97
2023-05-16T02:57:00.939Z,9.91
2023-05-16T02:58:00.891Z,9.91
2023-05-16T02:59:00.875Z,9.86
2023-05-16T03:00:00.873Z,9.83
2023-05-16T03:01:00.860Z,9.83
2023-05-16T03:02:00.913Z,9.81
2023-05-16T03:03:00.974Z,9.78
2023-05-16T03:04:00.933Z,9.76
2023-05-16T03:05:00.826Z,9.68
2023-05-16T03:06:00.810Z,9.68
2023-05-16T03:07:00.798Z,9.71
2023-05-16T03:08:00.795Z,9.67
2023-05-16T03:09:00.798Z,9.67
2023-05-16T03:10:00.756Z,9.64
2023-05-16T03:11:00.751Z,9.63
2023-05-16T03:12:00.750Z,9.64
2023-05-16T03:13:00.758Z,9.63
2023-05-16T03:14:01.899Z,9.61
2023-05-16T03:15:00.748Z,9.53
2023-05-16T03:16:00.746Z,9.49
2023-05-16T03:17:00.694Z,9.46
2023-05-16T03:18:00.775Z,9.48
2023-05-16T03:19:00.757Z,9.42
2023-05-16T03:20:00.655Z,9.38
2023-05-16T03:21:00.662Z,9.34
2023-05-16T03:22:00.636Z,9.38
2023-05-16T03:23:00.641Z,9.40
2023-05-16T03:24:00.669Z,9.42
2023-05-16T03:25:00.642Z,9.43
2023-05-16T03:26:00.589Z,9.45
2023-05-16T03:27:00.596Z,9.45
2023-05-16T03:28:00.577Z,9.43
2023-05-16T03:29:00.574Z,9.42
2023-05-16T03:30:00.580Z,9.43
2023-05-16T03:31:00.550Z,9.35
2023-05-16T03:32:00.635Z,9.40
2023-05-16T03:33:00.576Z,9.40
2023-05-16T03:34:00.524Z,9.42
2023-05-16T03:35:00.556Z,9.43
2023-05-16T03:36:00.486Z,9.45
2023-05-16T03:37:00.499Z,9.39
2023-05-16T03:38:00.460Z,9.38
2023-05-16T03:39:00.452Z,9.43
2023-05-16T03:40:00.460Z,9.39
2023-05-16T03:41:00.455Z,9.40
2023-05-16T03:42:00.437Z,9.39
2023-05-16T03:43:00.415Z,9.39
2023-05-16T03:44:00.406Z,9.35
2023-05-16T03:45:00.419Z,9.25
2023-05-16T03:46:00.395Z,9.20
2023-05-16T03:47:00.370Z,9.18
2023-05-16T03:48:00.456Z,9.13
2023-05-16T03:49:00.363Z,9.09
2023-05-16T03:50:00.387Z,9.09
2023-05-16T03:51:00.332Z,9.09
2023-05-16T03:52:00.316Z,9.06
2023-05-16T03:53:00.309Z,9.02
2023-05-16T03:54:00.305Z,8.97
2023-05-16T03:55:00.304Z,8.96
2023-05-16T03:56:00.306Z,8.94
2023-05-16T03:57:00.269Z,8.88
2023-05-16T03:58:00.254Z,8.84
2023-05-16T03:59:00.244Z,8.86
2023-05-16T04:00:00.231Z,8.83
2023-05-16T04:01:00.249Z,8.76
2023-05-16T04:02:00.260Z,8.75
2023-05-16T04:03:00.254Z,8.75
2023-05-16T04:04:00.241Z,8.75
2023-05-16T04:05:00.180Z,8.73
2023-05-16T04:06:00.259Z,8.72
2023-05-16T04:07:00.156Z,8.71
2023-05-16T04:08:00.147Z,8.69
2023-05-16T04:09:00.148Z,8.71
2023-05-16T04:10:00.134Z,8.69
2023-05-16T04:11:00.146Z,8.66
2023-05-16T04:12:00.124Z,8.65
2023-05-16T04:13:00.093Z,8.63
2023-05-16T04:14:00.165Z,8.62
2023-05-16T04:15:00.074Z,8.58
2023-05-16T04:16:00.106Z,8.58
2023-05-16T04:17:00.082Z,8.60
2023-05-16T04:18:00.129Z,8.60
2023-05-16T04:19:00.067Z,8.60
2023-05-16T04:20:00.034Z,8.60
2023-05-16T04:21:00.005Z,8.55
2023-05-16T04:21:59.996Z,8.55
2023-05-16T04:23:00.013Z,8.58
2023-05-16T04:23:59.979Z,8.63
2023-05-16T04:25:00.478Z,8.62
2023-05-16T04:25:59.952Z,8.57
2023-05-16T04:26:59.955Z,8.55
2023-05-16T04:27:59.935Z,8.54
2023-05-16T04:29:00.352Z,8.55
2023-05-16T04:29:59.964Z,8.54
2023-05-16T04:30:59.950Z,8.57
2023-05-16T04:31:59.913Z,8.55
2023-05-16T04:32:59.928Z,8.60
2023-05-16T04:33:59.866Z,8.55
2023-05-16T04:34:59.906Z,8.54
2023-05-16T04:35:59.846Z,8.55
2023-05-16T04:36:59.847Z,8.60
2023-05-16T04:37:59.830Z,8.60
2023-05-16T04:38:59.812Z,8.62
2023-05-16T04:39:59.807Z,8.58
2023-05-16T04:40:59.819Z,8.58
2023-05-16T04:41:59.782Z,8.58
2023-05-16T04:42:59.790Z,8.55
2023-05-16T04:43:59.759Z,8.54
2023-05-16T04:44:59.772Z,8.51
2023-05-16T04:45:59.798Z,8.51
2023-05-16T04:46:59.762Z,8.53
2023-05-16T04:47:59.743Z,8.55
2023-05-16T04:48:59.713Z,8.57
2023-05-16T04:49:59.702Z,8.54
2023-05-16T04:50:59.698Z,8.60
2023-05-16T04:51:59.695Z,8.63
2023-05-16T04:52:59.677Z,8.58
2023-05-16T04:53:59.657Z,8.57
2023-05-16T04:54:59.647Z,8.58
2023-05-16T04:55:59.633Z,8.63
2023-05-16T04:56:59.628Z,8.60
2023-05-16T04:57:59.646Z,8.62
2023-05-16T04:58:59.607Z,8.66
2023-05-16T04:59:59.601Z,8.73
2023-05-16T05:01:01.771Z,8.72
2023-05-16T05:01:59.586Z,8.76
2023-05-16T05:02:59.611Z,8.79
2023-05-16T05:03:59.544Z,8.78
2023-05-16T05:04:59.551Z,8.75
2023-05-16T05:05:59.543Z,8.73
2023-05-16T05:06:59.517Z,8.73
2023-05-16T05:07:59.532Z,8.73
2023-05-16T05:08:59.494Z,8.75
2023-05-16T05:09:59.480Z,8.81
2023-05-16T05:10:59.485Z,8.84
2023-05-16T05:11:59.463Z,8.86
2023-05-16T05:12:59.492Z,8.83
2023-05-16T05:13:59.449Z,8.87
2023-05-16T05:14:59.473Z,8.90
2023-05-16T05:15:59.433Z,8.91
2023-05-16T05:16:59.479Z,8.94
2023-05-16T05:17:59.518Z,8.97
2023-05-16T05:18:59.566Z,8.97
2023-05-16T05:20:00.456Z,9.02
2023-05-16T05:20:59.371Z,9.09
2023-05-16T05:21:59.364Z,9.13
2023-05-16T05:22:59.348Z,9.18
2023-05-16T05:23:59.342Z,9.18
2023-05-16T05:24:59.376Z,9.23
2023-05-16T05:25:59.323Z,9.28
2023-05-16T05:26:59.318Z,9.27
2023-05-16T05:27:59.300Z,9.25
2023-05-16T05:29:05.239Z,9.27
2023-05-16T05:29:59.301Z,9.25
2023-05-16T05:30:59.264Z,9.24
2023-05-16T05:31:59.286Z,9.23
2023-05-16T05:32:59.391Z,9.28
2023-05-16T05:33:59.229Z,9.31
2023-05-16T05:34:59.229Z,9.39
2023-05-16T05:35:59.221Z,9.46
2023-05-16T05:36:59.202Z,9.40
2023-05-16T05:37:59.185Z,9.38
2023-05-16T05:38:59.179Z,9.32
2023-05-16T05:39:59.170Z,9.35
2023-05-16T05:40:59.182Z,9.39
2023-05-16T05:41:59.154Z,9.45
2023-05-16T05:42:59.138Z,9.45
2023-05-16T05:43:59.121Z,9.46
2023-05-16T05:44:59.112Z,9.48
2023-05-16T05:45:59.173Z,9.49
2023-05-16T05:46:59.097Z,9.46
2023-05-16T05:47:59.181Z,9.52
2023-05-16T05:48:59.070Z,9.58
2023-05-16T05:49:59.057Z,9.61
2023-05-16T05:50:59.047Z,9.61
2023-05-16T05:51:59.061Z,9.67
2023-05-16T05:52:59.033Z,9.63
2023-05-16T05:53:59.021Z,9.66
2023-05-16T05:54:59.017Z,9.66
2023-05-16T05:55:58.995Z,9.63
2023-05-16T05:56:59.014Z,9.70
2023-05-16T05:57:59.094Z,9.70
2023-05-16T05:58:58.970Z,9.78
2023-05-16T05:59:58.952Z,9.89
2023-05-16T06:00:58.950Z,9.91
2023-05-16T06:01:58.988Z,9.97
2023-05-16T06:02:59.058Z,9.99
2023-05-16T06:04:00.748Z,9.86
2023-05-16T06:04:58.925Z,9.93
2023-05-16T06:05:58.990Z,9.94
2023-05-16T06:06:58.876Z,9.89
2023-05-16T06:07:58.879Z,9.86
2023-05-16T06:08:58.875Z,9.83
2023-05-16T06:09:58.848Z,9.88
2023-05-16T06:10:58.843Z,9.89
2023-05-16T06:11:58.877Z,9.93
2023-05-16T06:12:58.815Z,9.97
2023-05-16T06:13:58.823Z,10.15
2023-05-16T06:14:58.791Z,10.26
2023-05-16T06:15:58.796Z,10.43
2023-05-16T06:16:58.834Z,10.37
2023-05-16T06:17:58.811Z,10.33
2023-05-16T06:18:58.777Z,10.51
2023-05-16T06:19:58.746Z,10.71
2023-05-16T06:20:58.735Z,10.77
2023-05-16T06:21:58.764Z,10.81
2023-05-16T06:22:58.712Z,10.89
2023-05-16T06:23:58.706Z,10.83
2023-05-16T06:24:58.696Z,10.80
2023-05-16T06:25:58.683Z,10.76
2023-05-16T06:26:58.668Z,10.76
2023-05-16T06:27:58.675Z,10.86
2023-05-16T06:28:58.652Z,10.92
2023-05-16T06:29:58.633Z,11.06
2023-05-16T06:30:58.676Z,11.27
2023-05-16T06:31:58.652Z,11.44
2023-05-16T06:32:58.614Z,11.41
2023-05-16T06:33:58.604Z,11.31
2023-05-16T06:34:58.577Z,11.31
2023-05-16T06:35:58.577Z,11.09
2023-05-16T06:36:58.603Z,11.02
2023-05-16T06:37:58.552Z,10.95
2023-05-16T06:38:58.536Z,10.83
2023-05-16T06:39:58.531Z,10.91
2023-05-16T06:40:58.549Z,10.78
2023-05-16T06:41:58.511Z,10.84
2023-05-16T06:42:58.500Z,10.76
2023-05-16T06:43:58.507Z,10.77
2023-05-16T06:44:58.480Z,10.86
2023-05-16T06:45:58.557Z,10.84
2023-05-16T06:46:58.553Z,10.95
2023-05-16T06:47:58.455Z,10.92
2023-05-16T06:48:58.422Z,11.02
2023-05-16T06:49:58.432Z,11.06
2023-05-16T06:50:58.414Z,11.06
2023-05-16T06:51:58.411Z,11.06
2023-05-16T06:52:58.380Z,11.17
2023-05-16T06:53:58.368Z,11.17
2023-05-16T06:54:58.388Z,11.35
2023-05-16T06:55:58.351Z,11.28
2023-05-16T06:56:58.335Z,11.24
2023-05-16T06:57:58.488Z,11.28
2023-05-16T06:58:58.342Z,11.20
2023-05-16T06:59:58.352Z,11.25
2023-05-16T07:00:58.339Z,11.31
2023-05-16T07:01:58.311Z,11.38
2023-05-16T07:02:58.363Z,11.43
2023-05-16T07:03:58.412Z,11.38
2023-05-16T07:04:58.264Z,11.43
2023-05-16T07:05:58.281Z,11.52
2023-05-16T07:06:58.242Z,11.47
2023-05-16T07:07:58.257Z,11.52
2023-05-16T07:08:58.202Z,11.52
2023-05-16T07:09:58.210Z,11.41
2023-05-16T07:10:58.184Z,11.39
2023-05-16T07:11:58.177Z,11.44
2023-05-16T07:12:58.182Z,11.50
2023-05-16T07:13:58.146Z,11.56
2023-05-16T07:14:58.132Z,11.65
2023-05-16T07:15:58.156Z,11.68
2023-05-16T07:16:58.193Z,11.80
2023-05-16T07:17:58.166Z,11.94
2023-05-16T07:18:58.196Z,12.06
2023-05-16T07:19:58.101Z,12.13
2023-05-16T07:20:58.088Z,12.08
2023-05-16T07:21:58.091Z,12.15
2023-05-16T07:22:58.238Z,12.08
2023-05-16T07:23:58.063Z,12.13
2023-05-16T07:24:58.035Z,12.06
2023-05-16T07:25:58.018Z,12.04
2023-05-16T07:26:58.002Z,12.13
2023-05-16T07:27:58.016Z,12.33
2023-05-16T07:28:58.003Z,12.30
2023-05-16T07:29:57.972Z,12.45
2023-05-16T07:30:57.952Z,12.66
2023-05-16T07:31:57.985Z,12.64
2023-05-16T07:32:58.006Z,12.87
2023-05-16T07:33:57.935Z,13.04
2023-05-16T07:34:57.919Z,12.97
2023-05-16T07:36:12.064Z,13.03
2023-05-16T07:36:57.891Z,13.06
2023-05-16T07:37:57.922Z,12.97
2023-05-16T07:38:57.870Z,13.09
2023-05-16T07:39:57.866Z,13.12
2023-05-16T07:40:57.850Z,13.32
2023-05-16T07:41:57.853Z,13.56
2023-05-16T07:42:57.972Z,13.83
2023-05-16T07:43:57.812Z,13.89
2023-05-16T07:44:57.805Z,13.95
2023-05-16T07:45:57.861Z,13.83
2023-05-16T07:46:57.822Z,13.71
2023-05-16T07:47:57.801Z,13.37
2023-05-16T07:48:57.780Z,13.24
2023-05-16T07:49:57.743Z,13.27
2023-05-16T07:50:57.742Z,13.30
2023-05-16T07:51:57.730Z,13.37
2023-05-16T07:52:57.764Z,13.33
2023-05-16T07:53:57.741Z,13.40
2023-05-16T07:54:57.698Z,13.44
2023-05-16T07:55:57.700Z,13.52
2023-05-16T07:56:57.668Z,13.61
2023-05-16T07:57:57.659Z,13.61
2023-05-16T07:58:57.690Z,13.46
2023-05-16T07:59:57.654Z,13.61
2023-05-16T08:00:57.623Z,13.77
2023-05-16T08:01:57.663Z,13.87
2023-05-16T08:02:57.651Z,13.70
2023-05-16T08:03:57.626Z,13.91
2023-05-16T08:04:57.648Z,14.07
2023-05-16T08:05:57.693Z,14.17
2023-05-16T08:06:57.567Z,14.32
2023-05-16T08:07:57.552Z,14.29
2023-05-16T08:08:57.621Z,14.37
2023-05-16T08:09:57.545Z,14.24
2023-05-16T08:10:57.519Z,13.94
2023-05-16T08:11:57.514Z,13.65
2023-05-16T08:12:57.505Z,13.33
2023-05-16T08:13:57.494Z,13.21
2023-05-16T08:14:57.498Z,13.00
2023-05-16T08:15:57.494Z,12.89
2023-05-16T08:16:57.459Z,12.87
2023-05-16T08:17:57.519Z,12.77
2023-05-16T08:18:57.487Z,12.77
2023-05-16T08:19:57.440Z,12.67
2023-05-16T08:20:57.438Z,12.62
2023-05-16T08:21:57.404Z,12.75
2023-05-16T08:22:57.398Z,12.79
2023-05-16T08:23:57.385Z,12.95
2023-05-16T08:24:57.361Z,13.12
2023-05-16T08:25:57.379Z,13.27
2023-05-16T08:26:57.356Z,13.36
2023-05-16T08:27:58.064Z,13.46
2023-05-16T08:28:57.328Z,13.69
2023-05-16T08:29:57.321Z,13.91
2023-05-16T08:30:57.368Z,13.83
2023-05-16T08:31:57.359Z,14.02
2023-05-16T08:32:57.291Z,13.98
2023-05-16T08:33:57.274Z,13.70
2023-05-16T08:34:57.276Z,13.52
2023-05-16T08:35:57.245Z,13.27
2023-05-16T08:36:57.256Z,13.25
2023-05-16T08:37:57.228Z,13.29
2023-05-16T08:38:57.232Z,13.17
2023-05-16T08:39:57.225Z,13.04
2023-05-16T08:40:57.191Z,13.06
2023-05-16T08:41:57.216Z,12.99
2023-05-16T08:42:57.180Z,13.04
2023-05-16T08:43:57.166Z,13.06
2023-05-16T08:44:57.164Z,13.11
2023-05-16T08:45:57.150Z,13.15
2023-05-16T08:46:59.117Z,13.24
2023-05-16T08:47:57.251Z,13.44
2023-05-16T08:48:57.105Z,13.65
2023-05-16T08:50:05.691Z,13.69
2023-05-16T08:50:57.084Z,13.69
2023-05-16T08:51:57.070Z,13.76
2023-05-16T08:52:57.101Z,13.94
2023-05-16T08:53:57.055Z,14.17
2023-05-16T08:55:09.353Z,14.37
2023-05-16T08:55:57.040Z,14.57
2023-05-16T08:56:57.027Z,14.69
2023-05-16T08:57:57.030Z,14.67
2023-05-16T08:58:57.000Z,14.86
2023-05-16T08:59:58.692Z,15.02
2023-05-16T09:00:57.046Z,14.91
2023-05-16T09:01:56.973Z,15.11
2023-05-16T09:02:57.002Z,15.30
2023-05-16T09:03:57.038Z,15.33
2023-05-16T09:04:56.941Z,15.42
2023-05-16T09:05:56.925Z,15.42
2023-05-16T09:06:56.911Z,15.45
2023-05-16T09:07:56.906Z,15.20
2023-05-16T09:08:56.907Z,15.13
2023-05-16T09:09:56.879Z,14.86
2023-05-16T09:10:56.900Z,14.42
2023-05-16T09:11:56.866Z,14.24
2023-05-16T09:12:56.840Z,14.01
2023-05-16T09:13:56.853Z,13.87
2023-05-16T09:14:56.847Z,13.62
2023-05-16T09:15:56.813Z,13.41
2023-05-16T09:16:56.833Z,13.25
2023-05-16T09:17:56.958Z,13.27
2023-05-16T09:18:56.932Z,13.20
2023-05-16T09:19:56.791Z,13.27
2023-05-16T09:20:56.761Z,13.41
2023-05-16T09:21:56.745Z,13.52
2023-05-16T09:22:56.935Z,13.52
2023-05-16T09:23:56.741Z,13.73
2023-05-16T09:24:56.745Z,13.84
2023-05-16T09:25:56.743Z,13.94
2023-05-16T09:26:56.700Z,14.12
2023-05-16T09:27:56.709Z,14.28
2023-05-16T09:28:56.685Z,14.34
2023-05-16T09:29:56.664Z,14.38
2023-05-16T09:30:56.689Z,14.49
2023-05-16T09:31:56.668Z,14.57
2023-05-16T09:32:56.781Z,14.68
2023-05-16T09:33:56.615Z,14.91
2023-05-16T09:34:56.601Z,15.11
2023-05-16T09:35:56.598Z,15.31
2023-05-16T09:36:56.600Z,15.59
2023-05-16T09:37:56.882Z,15.78
2023-05-16T09:38:56.569Z,15.72
2023-05-16T09:39:56.564Z,15.79
2023-05-16T09:40:56.544Z,15.43
2023-05-16T09:41:56.562Z,14.99
2023-05-16T09:42:56.570Z,14.94
2023-05-16T09:43:56.511Z,15.17
2023-05-16T09:44:56.494Z,15.06
2023-05-16T09:45:56.514Z,15.06
2023-05-16T09:46:56.556Z,15.27
2023-05-16T09:47:56.469Z,15.46
2023-05-16T09:48:56.461Z,15.42
2023-05-16T09:49:56.452Z,15.23
2023-05-16T09:50:56.423Z,15.24
2023-05-16T09:51:56.456Z,15.33
2023-05-16T09:52:56.408Z,15.20
2023-05-16T09:53:56.390Z,15.24
2023-05-16T09:54:56.385Z,15.49
2023-05-16T09:55:56.380Z,15.93
2023-05-16T09:56:56.380Z,15.74
2023-05-16T09:57:56.362Z,15.81
2023-05-16T09:58:56.342Z,15.76
2023-05-16T09:59:56.331Z,15.70
2023-05-16T10:00:56.311Z,16.16
2023-05-16T10:01:56.320Z,16.27
2023-05-16T10:02:56.385Z,16.67
2023-05-16T10:03:56.441Z,16.73
2023-05-16T10:04:56.269Z,16.52
2023-05-16T10:05:56.275Z,16.90
2023-05-16T10:06:56.713Z,17.55
2023-05-16T10:07:56.257Z,17.51
2023-05-16T10:08:56.225Z,17.33
2023-05-16T10:09:56.226Z,16.98
2023-05-16T10:10:56.205Z,16.80
2023-05-16T10:11:56.213Z,16.50
2023-05-16T10:12:56.222Z,16.00
2023-05-16T10:13:56.198Z,15.66
2023-05-16T10:14:56.163Z,15.48
2023-05-16T10:15:56.207Z,16.12
2023-05-16T10:16:56.323Z,16.96
2023-05-16T10:17:56.257Z,17.99
2023-05-16T10:18:56.187Z,18.21
2023-05-16T10:19:56.118Z,18.29
2023-05-16T10:20:56.094Z,19.02
2023-05-16T10:21:56.096Z,19.23
2023-05-16T10:22:56.085Z,19.86
2023-05-16T10:23:56.102Z,20.33
2023-05-16T10:24:56.052Z,18.64
2023-05-16T10:25:56.053Z,18.22
2023-05-16T10:26:56.024Z,17.46
2023-05-16T10:27:56.036Z,17.76
2023-05-16T10:28:56.018Z,18.13
2023-05-16T10:29:56.019Z,18.17
2023-05-16T10:30:55.996Z,17.74
2023-05-16T10:31:56.023Z,17.10
2023-05-16T10:32:56.010Z,16.89
2023-05-16T10:33:56.003Z,16.90
2023-05-16T10:34:55.947Z,17.04
2023-05-16T10:35:55.937Z,17.04
2023-05-16T10:36:55.920Z,16.73
2023-05-16T10:37:55.910Z,16.22
2023-05-16T10:38:55.898Z,16.41
2023-05-16T10:39:55.913Z,17.87
2023-05-16T10:40:55.895Z,18.36
2023-05-16T10:41:55.866Z,17.43
2023-05-16T10:42:55.865Z,17.35
2023-05-16T10:43:55.849Z,17.55
2023-05-16T10:45:04.929Z,17.70
2023-05-16T10:45:55.868Z,18.04
2023-05-16T10:46:55.829Z,18.43
2023-05-16T10:47:55.941Z,19.13
2023-05-16T10:48:57.216Z,19.50
2023-05-16T10:49:55.817Z,18.94
2023-05-16T10:50:55.779Z,19.32
2023-05-16T10:51:55.753Z,19.50
2023-05-16T10:52:55.753Z,19.61
2023-05-16T10:53:55.748Z,20.08
2023-05-16T10:54:55.727Z,20.62
2023-05-16T10:55:55.746Z,20.15
2023-05-16T10:56:55.698Z,20.46
2023-05-16T10:57:55.698Z,20.91
2023-05-16T10:58:55.721Z,19.72
2023-05-16T10:59:57.844Z,20.08
2023-05-16T11:00:55.711Z,21.02
2023-05-16T11:01:55.746Z,21.72
2023-05-16T11:02:55.769Z,21.98
2023-05-16T11:03:55.674Z,21.88
2023-05-16T11:04:55.618Z,21.56
2023-05-16T11:05:55.895Z,21.56
2023-05-16T11:06:55.614Z,20.13
2023-05-16T11:07:55.579Z,18.67
2023-05-16T11:08:55.575Z,18.55
2023-05-16T11:09:55.560Z,18.46
2023-05-16T11:10:55.559Z,18.73
2023-05-16T11:11:55.545Z,17.88
2023-05-16T11:12:55.575Z,18.13
2023-05-16T11:13:55.528Z,18.24
2023-05-16T11:14:55.514Z,18.54
2023-05-16T11:15:55.502Z,18.97
2023-05-16T11:16:55.628Z,19.53
2023-05-16T11:17:55.480Z,20.06
2023-05-16T11:18:55.499Z,20.43
2023-05-16T11:19:55.456Z,20.46
2023-05-16T11:20:55.467Z,20.13
2023-05-16T11:21:55.427Z,20.27
2023-05-16T11:22:55.426Z,20.54
2023-05-16T11:23:55.405Z,20.00
2023-05-16T11:24:55.443Z,20.49
2023-05-16T11:25:55.390Z,20.84
2023-05-16T11:26:55.402Z,20.74
2023-05-16T11:27:55.363Z,19.66
2023-05-16T11:28:55.373Z,19.25
2023-05-16T11:29:55.369Z,18.95
2023-05-16T11:30:55.391Z,19.05
2023-05-16T11:31:55.417Z,18.22
2023-05-16T11:32:55.361Z,18.03
2023-05-16T11:33:55.312Z,18.54
2023-05-16T11:34:55.291Z,18.40
2023-05-16T11:36:07.458Z,17.94
2023-05-16T11:36:55.290Z,18.50
2023-05-16T11:37:55.266Z,19.80
2023-05-16T11:38:55.246Z,19.88
2023-05-16T11:39:55.261Z,19.54
2023-05-16T11:40:55.223Z,19.32
2023-05-16T11:41:55.234Z,19.08
2023-05-16T11:42:55.205Z,18.79
2023-05-16T11:43:55.198Z,19.11
2023-05-16T11:44:55.183Z,20.08
2023-05-16T11:45:55.171Z,20.53
2023-05-16T11:46:55.271Z,20.12
2023-05-16T11:47:55.233Z,19.58
2023-05-16T11:48:55.150Z,18.97
2023-05-16T11:49:55.137Z,18.39
2023-05-16T11:50:55.119Z,17.69
2023-05-16T11:51:55.131Z,17.40
2023-05-16T11:52:55.113Z,17.78
2023-05-16T11:53:55.088Z,17.91
2023-05-16T11:54:55.092Z,18.34
2023-05-16T11:55:56.008Z,17.92
2023-05-16T11:56:55.071Z,17.11
2023-05-16T11:57:55.072Z,17.00
2023-05-16T11:58:55.037Z,17.20
2023-05-16T11:59:55.053Z,18.65
2023-05-16T12:00:55.018Z,19.60
2023-05-16T12:01:55.034Z,19.58
2023-05-16T12:02:55.049Z,19.83
2023-05-16T12:03:55.141Z,20.21
2023-05-16T12:04:54.986Z,19.97
2023-05-16T12:05:54.975Z,20.89
2023-05-16T12:06:54.950Z,21.79
2023-05-16T12:07:54.961Z,21.81
2023-05-16T12:08:54.936Z,21.19
2023-05-16T12:09:54.922Z,21.09
2023-05-16T12:10:54.909Z,20.81
2023-05-16T12:11:54.895Z,21.74
2023-05-16T12:12:54.930Z,22.07
2023-05-16T12:13:54.875Z,22.28
2023-05-16T12:14:54.867Z,22.22
2023-05-16T12:15:54.863Z,22.34
2023-05-16T12:16:54.892Z,22.02
2023-05-16T12:17:54.856Z,21.63
2023-05-16T12:18:54.882Z,21.04
2023-05-16T12:19:54.813Z,21.19
2023-05-16T12:20:54.807Z,20.91
2023-05-16T12:21:54.817Z,21.02
2023-05-16T12:22:54.803Z,21.51
2023-05-16T12:23:54.780Z,21.72
2023-05-16T12:24:54.786Z,21.98
2023-05-16T12:25:54.760Z,21.76
2023-05-16T12:26:54.743Z,21.30
2023-05-16T12:27:54.732Z,21.94
2023-05-16T12:28:54.718Z,22.86
2023-05-16T12:29:54.727Z,22.46
2023-05-16T12:30:54.695Z,21.90
2023-05-16T12:31:54.758Z,21.11
2023-05-16T12:32:54.785Z,20.28
2023-05-16T12:33:54.669Z,20.15
2023-05-16T12:34:54.694Z,19.76
2023-05-16T12:35:54.644Z,18.83
2023-05-16T12:36:54.659Z,18.68
2023-05-16T12:37:54.628Z,18.24
2023-05-16T12:38:55.132Z,18.02
2023-05-16T12:39:54.602Z,17.59
2023-05-16T12:40:54.623Z,17.33
2023-05-16T12:41:54.595Z,17.23
2023-05-16T12:42:54.572Z,17.06
2023-05-16T12:43:54.554Z,16.88
2023-05-16T12:44:54.556Z,16.88
2023-05-16T12:45:54.616Z,17.15
2023-05-16T12:46:54.552Z,17.14
2023-05-16T12:47:54.576Z,17.26
2023-05-16T12:48:54.518Z,17.47
2023-05-16T12:49:54.502Z,17.57
2023-05-16T12:50:54.481Z,17.17
2023-05-16T12:51:54.492Z,17.04
2023-05-16T12:52:54.479Z,17.20
2023-05-16T12:54:06.052Z,17.35
2023-05-16T12:54:54.449Z,17.73
2023-05-16T12:55:54.422Z,17.81
2023-05-16T12:56:54.442Z,18.24
2023-05-16T12:57:54.437Z,18.19
2023-05-16T12:58:54.395Z,18.09